createdAt,value
2022-09-12T00:03:41.984Z,16.76
2022-09-12T00:08:44.187Z,16.77
2022-09-12T00:13:45.800Z,16.79
2022-09-12T00:18:47.970Z,16.76
2022-09-12T00:23:50.697Z,16.75
2022-09-12T00:28:52.503Z,16.78
2022-09-12T00:33:58.749Z,16.68
2022-09-12T00:39:00.699Z,16.68
2022-09-12T00:44:25.201Z,16.60
2022-09-12T00:49:44.078Z,16.56
2022-09-12T00:54:58.160Z,16.52
2022-09-12T01:00:10.260Z,16.59
2022-09-12T01:05:14.066Z,16.38
2022-09-12T01:10:16.174Z,16.40
2022-09-12T01:15:19.863Z,16.28
2022-09-12T01:20:36.817Z,16.20
2022-09-12T01:26:08.078Z,16.25
2022-09-12T01:31:32.881Z,16.26
2022-09-12T01:36:45.959Z,16.13
2022-09-12T01:42:10.322Z,16.11
2022-09-12T01:47:25.136Z,16.11
2022-09-12T01:52:35.017Z,16.02
2022-09-12T01:57:55.303Z,15.98
2022-09-12T02:03:03.026Z,15.94
2022-09-12T02:08:38.529Z,15.90
2022-09-12T02:13:43.199Z,15.90
2022-09-12T02:18:52.271Z,15.92
2022-09-12T02:23:58.838Z,15.85
2022-09-12T02:29:00.501Z,15.87
2022-09-12T02:34:29.615Z,15.83
2022-09-12T02:39:31.995Z,15.87
2022-09-12T02:44:35.654Z,15.86
2022-09-12T02:49:37.377Z,15.85
2022-09-12T02:54:39.686Z,15.78
2022-09-12T02:59:41.362Z,15.71
2022-09-12T03:05:10.357Z,15.76
2022-09-12T03:10:28.698Z,15.82
2022-09-12T03:16:19.924Z,15.76
2022-09-12T03:21:54.882Z,15.73
2022-09-12T03:27:03.856Z,15.72
2022-09-12T03:32:05.486Z,15.73
2022-09-12T03:37:07.225Z,15.72
2022-09-12T03:42:08.914Z,15.74
2022-09-12T03:47:11.422Z,15.79
2022-09-12T03:52:13.077Z,15.78
2022-09-12T03:57:15.437Z,15.73
2022-09-12T04:02:17.561Z,15.71
2022-09-12T04:07:19.390Z,15.69
2022-09-12T04:12:23.239Z,15.73
2022-09-12T04:17:24.797Z,15.72
2022-09-12T04:22:26.571Z,15.70
2022-09-12T04:27:28.345Z,15.70
2022-09-12T04:32:31.282Z,15.66
2022-09-12T04:37:32.994Z,15.66
2022-09-12T04:42:34.622Z,15.66
2022-09-12T04:47:36.279Z,15.66
2022-09-12T04:52:37.851Z,15.61
2022-09-12T04:57:39.893Z,15.57
2022-09-12T05:02:42.182Z,15.58
2022-09-12T05:07:43.832Z,15.53
2022-09-12T05:12:45.577Z,15.47
2022-09-12T05:17:47.197Z,15.46
2022-09-12T05:22:48.807Z,15.46
2022-09-12T05:27:52.865Z,15.44
2022-09-12T05:32:54.502Z,15.45
2022-09-12T05:37:56.134Z,15.50
2022-09-12T05:42:57.739Z,15.51
2022-09-12T05:47:59.346Z,15.48
2022-09-12T05:53:01.568Z,15.47
2022-09-12T05:58:03.317Z,15.44
2022-09-12T06:03:05.297Z,15.47
2022-09-12T06:08:07.114Z,15.44
2022-09-12T06:13:08.711Z,15.45
2022-09-12T06:18:10.374Z,15.46
2022-09-12T06:23:12.718Z,15.48
2022-09-12T06:28:14.357Z,15.48
2022-09-12T06:33:16.229Z,15.46
2022-09-12T06:38:18.484Z,15.51
2022-09-12T06:43:20.223Z,15.59
2022-09-12T06:48:23.850Z,15.70
2022-09-12T06:53:26.897Z,15.76
2022-09-12T06:58:29.746Z,15.91
2022-09-12T07:03:32.882Z,15.95
2022-09-12T07:08:35.921Z,16.00
2022-09-12T07:13:38.679Z,16.00
2022-09-12T07:18:40.522Z,16.04
2022-09-12T07:23:42.923Z,16.17
2022-09-12T07:28:44.963Z,16.31
2022-09-12T07:33:51.181Z,16.50
2022-09-12T07:38:57.735Z,16.51
2022-09-12T07:44:01.902Z,16.65
2022-09-12T07:49:03.678Z,16.85
2022-09-12T07:54:09.953Z,16.94
2022-09-12T07:59:11.696Z,17.14
2022-09-12T08:04:13.315Z,17.43
2022-09-12T08:09:17.527Z,17.52
2022-09-12T08:14:19.134Z,17.72
2022-09-12T08:19:22.811Z,17.86
2022-09-12T08:24:24.999Z,18.07
2022-09-12T08:29:26.628Z,18.24
2022-09-12T08:34:28.257Z,18.44
2022-09-12T08:39:29.838Z,18.72
2022-09-12T08:44:53.635Z,18.62
2022-09-12T08:50:00.956Z,18.68
2022-09-12T08:55:03.686Z,18.76
2022-09-12T09:00:07.439Z,18.89
2022-09-12T09:05:51.566Z,18.92
2022-09-12T09:11:14.672Z,19.22
2022-09-12T09:16:35.002Z,19.50
2022-09-12T09:21:57.536Z,19.63
2022-09-12T09:27:36.812Z,20.10
2022-09-12T09:32:41.532Z,20.19
2022-09-12T09:37:55.560Z,20.25
2022-09-12T09:43:03.507Z,20.43
2022-09-12T09:48:26.539Z,20.61
2022-09-12T09:53:53.110Z,20.81
2022-09-12T09:58:54.863Z,21.15
2022-09-12T10:03:56.921Z,20.87
2022-09-12T10:09:27.475Z,20.97
2022-09-12T10:14:41.608Z,21.26
2022-09-12T10:19:43.330Z,21.73
2022-09-12T10:24:52.568Z,21.57
2022-09-12T10:30:01.995Z,21.77
2022-09-12T10:35:16.098Z,21.70
2022-09-12T10:40:34.274Z,21.74
2022-09-12T10:45:37.986Z,21.78
2022-09-12T10:50:41.716Z,21.83
2022-09-12T10:55:57.945Z,22.15
2022-09-12T11:01:15.432Z,21.91
2022-09-12T11:06:23.230Z,22.19
2022-09-12T11:11:54.853Z,22.37
2022-09-12T11:17:02.524Z,22.33
2022-09-12T11:22:16.101Z,22.50
2022-09-12T11:27:47.398Z,22.47
2022-09-12T11:32:54.877Z,22.64
2022-09-12T11:38:36.386Z,22.84
2022-09-12T11:43:46.875Z,22.83
2022-09-12T11:48:57.702Z,22.67
2022-09-12T11:54:13.262Z,22.85
2022-09-12T11:59:32.831Z,22.80
2022-09-12T12:04:45.921Z,23.12
2022-09-12T12:09:52.278Z,23.16
2022-09-12T12:14:56.473Z,23.49
2022-09-12T12:20:06.497Z,23.46
2022-09-12T12:25:20.848Z,23.51
2022-09-12T12:30:29.502Z,23.49
2022-09-12T12:35:46.247Z,23.42
2022-09-12T12:40:47.898Z,23.75
2022-09-12T12:46:00.493Z,24.05
2022-09-12T12:51:29.686Z,23.54
2022-09-12T12:56:34.693Z,23.50
2022-09-12T13:01:41.182Z,23.88
2022-09-12T13:07:08.841Z,24.05
2022-09-12T13:12:19.671Z,23.83
2022-09-12T13:17:40.014Z,23.61
2022-09-12T13:22:52.243Z,23.65
2022-09-12T13:28:12.012Z,23.77
2022-09-12T13:33:19.956Z,23.80
2022-09-12T13:39:02.874Z,23.77
2022-09-12T13:44:09.899Z,24.06
2022-09-12T13:49:31.069Z,23.66
2022-09-12T13:54:38.985Z,23.71
2022-09-12T13:59:42.710Z,23.86
2022-09-12T14:05:09.368Z,24.05
2022-09-12T14:10:20.009Z,24.00
2022-09-12T14:15:25.636Z,24.26
2022-09-12T14:20:32.445Z,24.15
2022-09-12T14:25:41.556Z,24.02
2022-09-12T14:31:07.565Z,24.09
2022-09-12T14:36:12.076Z,24.20
2022-09-12T14:41:21.683Z,24.10
2022-09-12T14:46:31.620Z,23.93
2022-09-12T14:51:36.355Z,23.89
2022-09-12T14:56:53.835Z,23.85
2022-09-12T15:02:14.373Z,23.73
2022-09-12T15:07:50.355Z,23.77
2022-09-12T15:13:10.146Z,23.89
2022-09-12T15:18:12.256Z,23.84
2022-09-12T15:23:35.075Z,23.79
2022-09-12T15:28:36.824Z,23.83
2022-09-12T15:33:38.508Z,23.82
2022-09-12T15:38:40.103Z,23.66
2022-09-12T15:43:41.965Z,23.46
2022-09-12T15:48:43.897Z,23.25
2022-09-12T15:53:47.489Z,23.00
2022-09-12T15:58:58.717Z,22.85
2022-09-12T16:04:03.384Z,22.74
2022-09-12T16:09:05.096Z,22.70
2022-09-12T16:14:07.355Z,22.65
2022-09-12T16:19:10.015Z,22.71
2022-09-12T16:24:11.728Z,22.69
2022-09-12T16:29:14.519Z,22.55
2022-09-12T16:34:16.123Z,22.53
2022-09-12T16:39:17.713Z,22.38
2022-09-12T16:44:19.350Z,22.46
2022-09-12T16:49:21.737Z,22.38
2022-09-12T16:54:23.812Z,22.26
2022-09-12T16:59:25.423Z,22.20
2022-09-12T17:04:27.157Z,22.16
2022-09-12T17:09:29.459Z,22.12
2022-09-12T17:14:31.204Z,22.07
2022-09-12T17:19:33.088Z,22.03
2022-09-12T17:24:34.902Z,21.91
2022-09-12T17:29:37.169Z,21.88
2022-09-12T17:34:39.162Z,21.81
2022-09-12T17:39:41.108Z,21.74
2022-09-12T17:44:42.850Z,21.71
2022-09-12T17:49:44.960Z,21.65
2022-09-12T17:54:46.707Z,21.57
2022-09-12T17:59:48.400Z,21.51
2022-09-12T18:04:50.296Z,21.39
2022-09-12T18:14:53.543Z,21.28
2022-09-12T18:19:55.336Z,21.27
2022-09-12T18:24:56.977Z,21.20
2022-09-12T18:30:19.702Z,21.08
2022-09-12T18:35:20.308Z,21.05
2022-09-12T18:40:22.073Z,20.95
2022-09-12T18:45:23.742Z,20.95
2022-09-12T18:50:25.395Z,20.98
2022-09-12T18:55:27.124Z,20.90
2022-09-12T19:00:28.808Z,20.84
2022-09-12T19:05:30.383Z,20.79
2022-09-12T19:10:32.007Z,20.75
2022-09-12T19:15:33.733Z,20.70
2022-09-12T19:20:37.000Z,20.69
2022-09-12T19:25:39.662Z,20.69
2022-09-12T19:30:47.285Z,20.63
2022-09-12T19:35:50.149Z,20.49
2022-09-12T19:40:59.770Z,20.41
2022-09-12T19:46:02.172Z,20.45
2022-09-12T19:51:05.090Z,20.46
2022-09-12T19:56:08.818Z,20.46
2022-09-12T20:01:14.358Z,20.41
2022-09-12T20:06:17.666Z,20.36
2022-09-12T20:11:21.520Z,20.22
2022-09-12T20:16:26.271Z,20.22
2022-09-12T20:21:31.850Z,20.21
2022-09-12T20:26:34.393Z,20.21
2022-09-12T20:31:37.907Z,20.11
2022-09-12T20:36:39.858Z,20.09
2022-09-12T20:41:41.805Z,20.08
2022-09-12T20:46:43.535Z,20.07
2022-09-12T20:51:45.250Z,20.07
2022-09-12T20:56:47.047Z,20.04
2022-09-12T21:01:49.386Z,20.03
2022-09-12T21:06:51.162Z,20.04
2022-09-12T21:11:52.852Z,19.99
2022-09-12T21:16:54.719Z,20.00
2022-09-12T21:21:56.537Z,20.00
2022-09-12T21:27:03.502Z,19.95
2022-09-12T21:32:06.126Z,19.94
2022-09-12T21:37:07.778Z,19.95
2022-09-12T21:42:09.390Z,19.92
2022-09-12T21:47:11.260Z,19.82
2022-09-12T21:52:12.995Z,19.86
2022-09-12T21:57:14.598Z,19.83
2022-09-12T22:02:16.561Z,19.85
2022-09-12T22:07:18.245Z,19.75
2022-09-12T22:12:20.102Z,19.77
2022-09-12T22:17:22.527Z,19.75
2022-09-12T22:22:43.124Z,19.73
2022-09-12T22:27:44.780Z,19.65
2022-09-12T22:32:48.289Z,19.71
2022-09-12T22:37:49.842Z,19.73
2022-09-12T22:42:52.686Z,19.74
2022-09-12T22:47:54.207Z,19.75
2022-09-12T22:53:12.484Z,19.76
2022-09-12T22:58:51.714Z,19.77
2022-09-12T23:03:53.945Z,19.75
2022-09-12T23:08:56.323Z,19.73
2022-09-12T23:13:58.051Z,19.72
2022-09-12T23:18:59.774Z,19.72
2022-09-12T23:24:01.647Z,19.72
2022-09-12T23:29:05.734Z,19.67
2022-09-12T23:34:07.412Z,19.66
2022-09-12T23:39:09.597Z,19.68
2022-09-12T23:44:11.238Z,19.70
2022-09-12T23:49:12.862Z,19.70
2022-09-12T23:54:14.729Z,19.67
2022-09-12T23:59:16.281Z,19.62
